createdAt,value
2023-01-12T00:01:12.728Z,1.90
2023-01-12T00:03:39.217Z,1.30
2023-01-12T00:06:07.846Z,1.83
2023-01-12T00:08:34.347Z,2.27
2023-01-12T00:11:00.814Z,1.90
2023-01-12T00:13:27.394Z,1.00
2023-01-12T00:16:12.696Z,1.10
2023-01-12T00:18:39.235Z,1.87
2023-01-12T00:21:05.728Z,2.13
2023-01-12T00:23:32.213Z,1.47
2023-01-12T00:25:58.693Z,1.50
2023-01-12T00:28:25.190Z,1.37
2023-01-12T00:30:51.791Z,1.63
2023-01-12T00:33:20.008Z,1.70
2023-01-12T00:35:46.507Z,1.37
2023-01-12T00:38:13.025Z,1.50
2023-01-12T00:40:39.510Z,1.20
2023-01-12T00:43:25.060Z,1.50
2023-01-12T00:45:51.624Z,1.53
2023-01-12T00:48:18.280Z,1.50
2023-01-12T00:50:46.340Z,1.90
2023-01-12T00:53:13.065Z,1.57
2023-01-12T00:55:39.606Z,1.80
2023-01-12T00:58:06.223Z,1.60
2023-01-12T01:00:32.814Z,1.57
2023-01-12T01:02:59.343Z,1.23
2023-01-12T01:05:25.890Z,1.40
2023-01-12T01:07:52.373Z,1.20
2023-01-12T01:10:18.852Z,2.17
2023-01-12T01:12:45.467Z,1.33
2023-01-12T01:15:12.007Z,1.90
2023-01-12T01:17:38.544Z,1.60
2023-01-12T01:20:05.022Z,0.90
2023-01-12T01:22:31.546Z,1.17
2023-01-12T01:24:58.013Z,1.10
2023-01-12T01:27:24.503Z,1.30
2023-01-12T01:29:53.640Z,1.40
2023-01-12T01:32:20.133Z,1.60
2023-01-12T01:34:47.026Z,1.20
2023-01-12T01:37:13.493Z,1.60
2023-01-12T01:39:39.990Z,1.20
2023-01-12T01:42:26.479Z,0.93
2023-01-12T01:44:52.954Z,1.27
2023-01-12T01:47:19.422Z,1.53
2023-01-12T01:49:45.943Z,1.10
2023-01-12T01:52:12.462Z,1.27
2023-01-12T01:54:38.954Z,1.37
2023-01-12T01:57:05.474Z,1.30
2023-01-12T01:59:31.948Z,1.07
2023-01-12T02:01:58.493Z,1.07
2023-01-12T02:04:25.657Z,1.30
2023-01-12T02:06:52.557Z,1.27
2023-01-12T02:09:19.051Z,1.30
2023-01-12T02:12:04.451Z,1.20
2023-01-12T02:14:57.238Z,1.10
2023-01-12T02:17:23.704Z,1.40
2023-01-12T02:19:50.199Z,1.60
2023-01-12T02:22:16.689Z,1.00
2023-01-12T02:24:43.203Z,0.97
2023-01-12T02:27:09.721Z,1.47
2023-01-12T02:29:36.557Z,0.93
2023-01-12T02:32:03.073Z,1.80
2023-01-12T02:34:29.612Z,1.47
2023-01-12T02:36:56.113Z,2.80
2023-01-12T02:39:22.681Z,2.37
2023-01-12T02:42:07.928Z,1.83
2023-01-12T02:44:34.449Z,2.30
2023-01-12T02:47:00.976Z,1.83
2023-01-12T02:49:27.447Z,1.47
2023-01-12T02:51:54.309Z,1.40
2023-01-12T02:54:20.844Z,1.53
2023-01-12T02:56:47.367Z,1.63
2023-01-12T02:59:13.906Z,1.83
2023-01-12T03:01:40.460Z,1.57
2023-01-12T03:04:07.006Z,1.57
2023-01-12T03:06:33.492Z,2.07
2023-01-12T03:08:59.988Z,1.53
2023-01-12T03:11:26.487Z,1.80
2023-01-12T03:13:53.039Z,1.57
2023-01-12T03:16:19.626Z,1.93
2023-01-12T03:18:46.193Z,1.50
2023-01-12T03:21:12.791Z,1.33
2023-01-12T03:23:39.309Z,1.47
2023-01-12T03:26:05.781Z,1.20
2023-01-12T03:28:32.277Z,1.37
2023-01-12T03:30:58.746Z,1.53
2023-01-12T03:33:25.224Z,1.90
2023-01-12T03:35:51.841Z,1.70
2023-01-12T03:38:18.306Z,1.03
2023-01-12T03:40:44.781Z,1.83
2023-01-12T03:43:11.268Z,1.33
2023-01-12T03:45:37.883Z,1.80
2023-01-12T03:48:04.389Z,1.40
2023-01-12T03:50:30.871Z,2.20
2023-01-12T03:52:57.370Z,1.40
2023-01-12T03:55:24.009Z,1.60
2023-01-12T03:57:50.497Z,1.60
2023-01-12T04:00:17.034Z,1.53
2023-01-12T04:02:43.562Z,0.93
2023-01-12T04:05:10.054Z,1.00
2023-01-12T04:07:36.538Z,1.03
2023-01-12T04:10:03.036Z,1.50
2023-01-12T04:12:29.546Z,0.87
2023-01-12T04:14:56.112Z,0.80
2023-01-12T04:17:25.130Z,1.10
2023-01-12T04:19:51.884Z,0.90
2023-01-12T04:22:37.312Z,0.60
2023-01-12T04:25:03.819Z,0.73
2023-01-12T04:27:30.309Z,1.03
2023-01-12T04:29:56.794Z,0.60
2023-01-12T04:32:23.325Z,0.97
2023-01-12T04:34:49.889Z,1.00
2023-01-12T04:37:16.734Z,0.87
2023-01-12T04:39:43.235Z,0.60
2023-01-12T04:42:29.690Z,1.17
2023-01-12T04:44:56.190Z,1.00
2023-01-12T04:47:22.698Z,1.30
2023-01-12T04:49:49.243Z,0.73
2023-01-12T04:52:15.728Z,1.20
2023-01-12T04:54:42.223Z,1.50
2023-01-12T04:57:08.697Z,1.27
2023-01-12T04:59:35.222Z,0.70
2023-01-12T05:02:01.790Z,1.10
2023-01-12T05:04:28.369Z,1.00
2023-01-12T05:06:54.856Z,0.70
2023-01-12T05:09:40.167Z,0.70
2023-01-12T05:12:06.691Z,0.47
2023-01-12T05:14:33.200Z,1.10
2023-01-12T05:16:59.680Z,0.90
2023-01-12T05:19:26.204Z,0.40
2023-01-12T05:21:52.692Z,0.73
2023-01-12T05:24:19.214Z,0.60
2023-01-12T05:26:45.737Z,0.70
2023-01-12T05:29:12.241Z,0.53
2023-01-12T05:31:38.740Z,1.00
2023-01-12T05:34:05.221Z,0.70
2023-01-12T05:36:31.764Z,0.50
2023-01-12T05:38:58.280Z,0.60
2023-01-12T05:41:24.923Z,0.60
2023-01-12T05:43:51.503Z,0.60
2023-01-12T05:46:18.017Z,0.70
2023-01-12T05:48:44.541Z,1.50
2023-01-12T05:51:11.134Z,1.40
2023-01-12T05:53:37.694Z,1.23
2023-01-12T05:56:04.348Z,0.90
2023-01-12T05:58:30.817Z,0.57
2023-01-12T06:00:57.387Z,0.63
2023-01-12T06:03:23.898Z,0.80
2023-01-12T06:05:50.414Z,0.77
2023-01-12T06:08:16.925Z,1.37
2023-01-12T06:10:43.433Z,0.60
2023-01-12T06:13:28.704Z,0.47
2023-01-12T06:15:55.282Z,0.83
2023-01-12T06:18:22.840Z,0.63
2023-01-12T06:20:49.403Z,0.73
2023-01-12T06:23:16.200Z,0.60
2023-01-12T06:25:42.709Z,0.67
2023-01-12T06:28:09.282Z,0.70
2023-01-12T06:30:35.811Z,1.03
2023-01-12T06:33:02.703Z,0.40
2023-01-12T06:35:29.241Z,0.70
2023-01-12T06:37:55.732Z,0.60
2023-01-12T06:40:22.228Z,0.80
2023-01-12T06:42:48.724Z,0.60
2023-01-12T06:45:15.215Z,0.53
2023-01-12T06:47:41.749Z,0.77
2023-01-12T06:50:08.215Z,0.40
2023-01-12T06:52:35.034Z,0.43
2023-01-12T06:55:01.573Z,0.60
2023-01-12T06:57:28.088Z,0.40
2023-01-12T06:59:54.593Z,0.50
2023-01-12T07:02:21.131Z,0.40
2023-01-12T07:04:47.686Z,0.53
2023-01-12T07:07:14.591Z,0.40
2023-01-12T07:09:41.114Z,0.83
2023-01-12T07:12:07.880Z,0.40
2023-01-12T07:14:34.383Z,0.50
2023-01-12T07:17:00.928Z,0.30
2023-01-12T07:19:27.493Z,0.43
2023-01-12T07:21:53.996Z,0.50
2023-01-12T07:24:20.536Z,0.40
2023-01-12T07:26:47.018Z,0.40
2023-01-12T07:29:13.514Z,0.40
2023-01-12T07:31:40.089Z,0.70
2023-01-12T07:34:06.610Z,0.60
2023-01-12T07:36:33.203Z,1.00
2023-01-12T07:39:00.497Z,0.57
2023-01-12T07:41:47.297Z,0.70
2023-01-12T07:44:13.804Z,0.40
2023-01-12T07:46:40.437Z,0.70
2023-01-12T07:49:06.943Z,0.53
2023-01-12T07:51:33.591Z,0.50
2023-01-12T07:54:00.125Z,0.40
2023-01-12T07:56:26.638Z,0.40
2023-01-12T07:58:53.239Z,0.40
2023-01-12T08:01:20.073Z,0.50
2023-01-12T08:03:46.781Z,0.67
2023-01-12T08:06:13.296Z,0.40
2023-01-12T08:08:39.821Z,0.50
2023-01-12T08:11:06.341Z,0.53
2023-01-12T08:13:32.843Z,0.60
2023-01-12T08:16:04.174Z,0.93
2023-01-12T08:18:30.776Z,0.30
2023-01-12T08:20:57.252Z,0.63
2023-01-12T08:23:23.781Z,0.40
2023-01-12T08:25:54.645Z,0.50
2023-01-12T08:28:21.217Z,0.53
2023-01-12T08:30:47.700Z,0.80
2023-01-12T08:33:14.805Z,1.80
2023-01-12T08:35:41.323Z,0.30
2023-01-12T08:38:07.821Z,0.40
2023-01-12T08:40:53.227Z,0.30
2023-01-12T08:43:39.699Z,0.40
2023-01-12T08:46:09.380Z,0.50
2023-01-12T08:48:35.942Z,0.40
2023-01-12T08:51:02.431Z,0.40
2023-01-12T08:53:28.954Z,0.40
2023-01-12T08:55:55.707Z,0.50
2023-01-12T08:58:22.586Z,0.50
2023-01-12T09:00:49.132Z,0.40
2023-01-12T09:03:15.671Z,0.40
2023-01-12T09:05:42.450Z,0.50
2023-01-12T09:08:08.941Z,0.40
2023-01-12T09:10:35.436Z,0.53
2023-01-12T09:13:01.990Z,0.53
2023-01-12T09:15:28.504Z,0.57
2023-01-12T09:17:55.003Z,0.50
2023-01-12T09:20:21.519Z,0.33
2023-01-12T09:22:48.011Z,0.70
2023-01-12T09:25:14.518Z,0.83
2023-01-12T09:27:40.998Z,0.60
2023-01-12T09:30:07.771Z,0.50
2023-01-12T09:32:37.360Z,0.50
2023-01-12T09:35:03.966Z,0.57
2023-01-12T09:37:30.463Z,0.53
2023-01-12T09:39:57.001Z,0.50
2023-01-12T09:42:42.398Z,0.50
2023-01-12T09:45:27.543Z,0.50
2023-01-12T09:47:56.154Z,0.60
2023-01-12T09:50:22.786Z,0.50
2023-01-12T09:52:49.329Z,0.73
2023-01-12T09:55:15.967Z,0.60
2023-01-12T09:57:42.449Z,0.60
2023-01-12T10:00:08.939Z,0.40
2023-01-12T10:02:35.619Z,0.70
2023-01-12T10:05:02.202Z,0.73
2023-01-12T10:07:28.760Z,0.70
2023-01-12T10:09:55.233Z,0.60
2023-01-12T10:12:21.737Z,1.10
2023-01-12T10:14:48.228Z,0.63
2023-01-12T10:17:15.035Z,0.50
2023-01-12T10:19:41.615Z,0.60
2023-01-12T10:22:08.412Z,0.70
2023-01-12T10:24:34.936Z,0.63
2023-01-12T10:27:01.794Z,0.97
2023-01-12T10:29:28.494Z,0.50
2023-01-12T10:31:55.636Z,0.60
2023-01-12T10:34:22.421Z,0.77
2023-01-12T10:36:55.768Z,0.53
2023-01-12T10:39:22.417Z,0.70
2023-01-12T10:41:52.024Z,0.70
2023-01-12T10:44:18.648Z,0.60
2023-01-12T10:46:45.178Z,0.63
2023-01-12T10:49:11.656Z,0.67
2023-01-12T10:51:38.138Z,1.10
2023-01-12T10:54:04.625Z,0.60
2023-01-12T10:56:31.282Z,0.70
2023-01-12T10:58:57.804Z,0.70
2023-01-12T11:01:24.551Z,1.50
2023-01-12T11:03:51.076Z,0.60
2023-01-12T11:06:17.596Z,0.63
2023-01-12T11:08:44.148Z,0.80
2023-01-12T11:11:10.673Z,0.43
2023-01-12T11:13:37.522Z,0.80
2023-01-12T11:16:07.481Z,0.50
2023-01-12T11:18:34.194Z,0.73
2023-01-12T11:21:00.708Z,0.90
2023-01-12T11:23:27.288Z,0.50
2023-01-12T11:25:54.507Z,0.77
2023-01-12T11:28:20.995Z,0.50
2023-01-12T11:30:48.258Z,0.47
2023-01-12T11:33:14.852Z,0.40
2023-01-12T11:35:41.481Z,0.40
2023-01-12T11:38:07.948Z,0.60
2023-01-12T11:40:34.563Z,0.50
2023-01-12T11:43:19.861Z,0.70
2023-01-12T11:45:46.470Z,0.50
2023-01-12T11:48:13.006Z,0.40
2023-01-12T11:50:39.512Z,0.50
2023-01-12T11:53:07.357Z,0.70
2023-01-12T11:55:33.973Z,0.50
2023-01-12T11:58:00.654Z,0.60
2023-01-12T12:00:27.135Z,0.80
2023-01-12T12:02:53.905Z,0.50
2023-01-12T12:05:20.570Z,0.60
2023-01-12T12:07:48.131Z,0.60
2023-01-12T12:10:14.827Z,0.80
2023-01-12T12:12:41.631Z,0.60
2023-01-12T12:15:08.131Z,0.73
2023-01-12T12:17:34.769Z,0.67
2023-01-12T12:20:01.315Z,0.60
2023-01-12T12:22:27.839Z,0.50
2023-01-12T12:24:54.481Z,1.10
2023-01-12T12:27:20.976Z,0.73
2023-01-12T12:29:47.451Z,0.60
2023-01-12T12:32:13.932Z,0.43
2023-01-12T12:34:43.044Z,0.60
2023-01-12T12:37:11.290Z,0.40
2023-01-12T12:39:37.847Z,0.57
2023-01-12T12:42:23.477Z,0.37
2023-01-12T12:45:08.715Z,0.60
2023-01-12T12:47:35.204Z,0.60
2023-01-12T12:50:01.664Z,0.50
2023-01-12T12:52:32.789Z,0.53
2023-01-12T12:54:59.341Z,1.40
2023-01-12T12:57:25.823Z,0.70
2023-01-12T12:59:52.839Z,0.60
2023-01-12T13:02:19.875Z,0.70
2023-01-12T13:04:46.432Z,0.50
2023-01-12T13:07:12.960Z,0.50
2023-01-12T13:09:39.598Z,0.60
2023-01-12T13:12:06.096Z,0.40
2023-01-12T13:14:32.581Z,0.50
2023-01-12T13:16:59.071Z,0.47
2023-01-12T13:19:25.582Z,0.57
2023-01-12T13:21:56.054Z,0.50
2023-01-12T13:24:24.531Z,0.63
2023-01-12T13:26:53.657Z,0.77
2023-01-12T13:29:20.158Z,0.50
2023-01-12T13:31:46.664Z,0.60
2023-01-12T13:34:13.166Z,0.87
2023-01-12T13:36:39.680Z,0.40
2023-01-12T13:39:06.733Z,0.50
2023-01-12T13:41:52.084Z,1.10
2023-01-12T13:44:18.623Z,0.93
2023-01-12T13:46:45.190Z,0.80
2023-01-12T13:49:11.696Z,0.80
2023-01-12T13:51:38.833Z,0.63
2023-01-12T13:54:05.476Z,0.63
2023-01-12T13:56:32.130Z,0.67
2023-01-12T13:59:00.447Z,0.70
2023-01-12T14:01:28.409Z,0.60
2023-01-12T14:03:54.957Z,0.50
2023-01-12T14:06:21.484Z,0.50
2023-01-12T14:08:51.618Z,0.70
2023-01-12T14:11:18.591Z,0.90
2023-01-12T14:13:45.115Z,0.80
2023-01-12T14:16:30.560Z,0.60
2023-01-12T14:18:57.133Z,0.57
2023-01-12T14:21:23.700Z,0.40
2023-01-12T14:23:50.236Z,0.50
2023-01-12T14:26:18.538Z,0.67
2023-01-12T14:28:45.278Z,0.50
2023-01-12T14:31:11.876Z,0.40
2023-01-12T14:33:38.426Z,0.67
2023-01-12T14:36:04.964Z,0.50
2023-01-12T14:38:33.549Z,0.50
2023-01-12T14:41:00.302Z,1.00
2023-01-12T14:43:45.518Z,0.50
2023-01-12T14:46:27.419Z,0.60
2023-01-12T14:48:53.935Z,0.87
2023-01-12T14:51:20.429Z,0.60
2023-01-12T14:53:47.385Z,0.67
2023-01-12T14:56:13.950Z,0.60
2023-01-12T14:58:40.511Z,1.00
2023-01-12T15:01:08.023Z,0.70
2023-01-12T15:03:43.259Z,0.70
2023-01-12T15:06:10.466Z,0.60
2023-01-12T15:08:37.056Z,1.83
2023-01-12T15:11:03.544Z,0.50
2023-01-12T15:13:30.257Z,0.50
2023-01-12T15:16:15.356Z,0.40
2023-01-12T15:19:00.594Z,0.50
2023-01-12T15:21:45.790Z,0.63
2023-01-12T15:24:30.835Z,0.50
2023-01-12T15:27:06.000Z,0.60
2023-01-12T15:29:33.283Z,0.50
2023-01-12T15:32:01.662Z,0.40
2023-01-12T15:34:28.195Z,0.70
2023-01-12T15:36:54.705Z,0.70
2023-01-12T15:39:21.212Z,1.13
2023-01-12T15:42:06.679Z,0.90
2023-01-12T15:44:33.295Z,0.90
2023-01-12T15:46:59.773Z,1.00
2023-01-12T15:49:26.749Z,1.10
2023-01-12T15:51:53.261Z,0.80
2023-01-12T15:54:19.819Z,0.80
2023-01-12T15:56:46.295Z,1.23
2023-01-12T15:59:12.796Z,1.00
2023-01-12T16:01:41.396Z,1.43
2023-01-12T16:04:41.062Z,0.87
2023-01-12T16:06:55.715Z,1.17
2023-01-12T16:09:22.218Z,1.00
2023-01-12T16:11:48.681Z,0.63
2023-01-12T16:14:15.207Z,0.53
2023-01-12T16:16:41.836Z,0.50
2023-01-12T16:19:09.349Z,0.77
2023-01-12T16:21:35.819Z,1.07
2023-01-12T16:24:02.368Z,0.97
2023-01-12T16:26:28.923Z,1.20
2023-01-12T16:28:55.533Z,0.90
2023-01-12T16:31:22.082Z,1.10
2023-01-12T16:33:48.568Z,1.00
2023-01-12T16:36:15.073Z,1.10
2023-01-12T16:38:41.638Z,1.30
2023-01-12T16:41:08.243Z,0.77
2023-01-12T16:43:36.089Z,0.83
2023-01-12T16:46:03.907Z,1.00
2023-01-12T16:48:30.958Z,1.30
2023-01-12T16:50:57.496Z,1.00
2023-01-12T16:53:24.348Z,0.80
2023-01-12T16:55:50.890Z,1.27
2023-01-12T16:58:20.461Z,0.70
2023-01-12T17:00:47.062Z,0.57
2023-01-12T17:03:14.110Z,0.90
2023-01-12T17:05:41.158Z,1.00
2023-01-12T17:08:07.876Z,1.03
2023-01-12T17:10:34.472Z,1.10
2023-01-12T17:13:03.304Z,0.70
2023-01-12T17:15:30.106Z,0.80
2023-01-12T17:17:56.928Z,1.47
2023-01-12T17:20:23.579Z,1.37
2023-01-12T17:22:50.543Z,0.83
2023-01-12T17:25:17.093Z,0.73
2023-01-12T17:27:43.719Z,0.90
2023-01-12T17:30:10.400Z,1.10
2023-01-12T17:32:36.956Z,1.00
2023-01-12T17:35:05.107Z,1.00
2023-01-12T17:37:31.671Z,0.80
2023-01-12T17:39:58.344Z,0.70
2023-01-12T17:42:43.824Z,1.27
2023-01-12T17:45:10.442Z,1.03
2023-01-12T17:47:36.994Z,0.60
2023-01-12T17:50:03.541Z,0.70
2023-01-12T17:52:30.050Z,0.70
2023-01-12T17:54:56.620Z,1.00
2023-01-12T17:57:23.118Z,0.57
2023-01-12T17:59:49.895Z,0.70
2023-01-12T18:02:18.181Z,0.83
2023-01-12T18:04:44.836Z,0.73
2023-01-12T18:07:11.347Z,1.40
2023-01-12T18:09:37.905Z,1.47
2023-01-12T18:12:05.087Z,0.93
2023-01-12T18:14:31.727Z,1.10
2023-01-12T18:16:58.302Z,1.00
2023-01-12T18:19:24.923Z,1.40
2023-01-12T18:21:51.425Z,0.60
2023-01-12T18:24:19.014Z,0.80
2023-01-12T18:26:45.616Z,0.67
2023-01-12T18:29:12.157Z,0.87
2023-01-12T18:31:42.233Z,0.93
2023-01-12T18:34:09.130Z,0.60
2023-01-12T18:36:35.690Z,1.10
2023-01-12T18:39:02.285Z,0.70
2023-01-12T18:41:47.763Z,0.80
2023-01-12T18:44:14.242Z,0.60
2023-01-12T18:46:59.695Z,0.63
2023-01-12T18:49:26.230Z,1.37
2023-01-12T18:52:11.627Z,0.77
2023-01-12T18:54:44.075Z,1.23
2023-01-12T18:57:11.381Z,1.03
2023-01-12T18:59:37.931Z,0.70
2023-01-12T19:02:04.808Z,0.93
2023-01-12T19:04:51.329Z,0.70
2023-01-12T19:07:20.056Z,0.70
2023-01-12T19:09:46.567Z,0.60
2023-01-12T19:12:13.073Z,1.17
2023-01-12T19:14:58.418Z,0.67
2023-01-12T19:17:27.921Z,0.70
2023-01-12T19:19:54.471Z,1.00
2023-01-12T19:22:39.900Z,0.70
2023-01-12T19:25:25.126Z,1.17
2023-01-12T19:28:10.494Z,0.60
2023-01-12T19:30:38.136Z,0.70
2023-01-12T19:33:31.017Z,0.70
2023-01-12T19:35:57.539Z,0.83
2023-01-12T19:38:24.016Z,0.90
2023-01-12T19:40:54.522Z,1.10
2023-01-12T19:43:22.035Z,1.03
2023-01-12T19:45:48.558Z,0.90
2023-01-12T19:48:15.530Z,1.10
2023-01-12T19:50:43.794Z,0.83
2023-01-12T19:53:10.646Z,0.70
2023-01-12T19:55:37.156Z,0.93
2023-01-12T19:58:08.458Z,0.90
2023-01-12T20:00:35.079Z,0.70
2023-01-12T20:03:01.694Z,1.27
2023-01-12T20:05:28.322Z,0.70
2023-01-12T20:07:54.911Z,1.10
2023-01-12T20:10:21.481Z,0.70
2023-01-12T20:12:48.078Z,1.27
2023-01-12T20:15:15.127Z,0.80
2023-01-12T20:17:41.680Z,0.80
2023-01-12T20:20:08.489Z,0.90
2023-01-12T20:22:35.666Z,1.30
2023-01-12T20:25:02.703Z,0.90
2023-01-12T20:27:29.260Z,1.70
2023-01-12T20:29:55.800Z,1.17
2023-01-12T20:32:22.360Z,1.10
2023-01-12T20:34:48.885Z,1.10
2023-01-12T20:37:15.379Z,0.90
2023-01-12T20:39:42.063Z,1.00
2023-01-12T20:42:08.718Z,0.90
2023-01-12T20:44:35.221Z,0.60
2023-01-12T20:47:01.730Z,0.70
2023-01-12T20:49:28.255Z,0.67
2023-01-12T20:51:54.816Z,0.87
2023-01-12T20:54:21.426Z,0.90
2023-01-12T20:56:47.921Z,0.70
2023-01-12T20:59:15.240Z,2.20
2023-01-12T21:01:41.798Z,0.93
2023-01-12T21:04:08.444Z,0.70
2023-01-12T21:06:34.992Z,0.60
2023-01-12T21:09:01.560Z,0.70
2023-01-12T21:11:28.036Z,0.70
2023-01-12T21:13:54.529Z,0.50
2023-01-12T21:16:22.210Z,0.90
2023-01-12T21:18:49.163Z,1.00
2023-01-12T21:21:15.728Z,0.70
2023-01-12T21:23:42.689Z,1.00
2023-01-12T21:26:10.734Z,0.80
2023-01-12T21:28:37.456Z,0.63
2023-01-12T21:31:04.017Z,0.50
2023-01-12T21:33:30.593Z,1.37
2023-01-12T21:35:57.193Z,0.83
2023-01-12T21:38:23.706Z,0.80
2023-01-12T21:40:50.212Z,0.77
2023-01-12T21:43:18.208Z,1.20
2023-01-12T21:45:44.721Z,0.47
2023-01-12T21:48:11.230Z,0.50
2023-01-12T21:50:37.724Z,0.70
2023-01-12T21:53:04.203Z,0.57
2023-01-12T21:55:31.295Z,0.40
2023-01-12T21:57:57.810Z,0.60
2023-01-12T22:00:24.631Z,0.40
2023-01-12T22:02:51.329Z,0.50
2023-01-12T22:05:18.220Z,0.47
2023-01-12T22:07:44.807Z,0.50
2023-01-12T22:10:20.687Z,0.40
2023-01-12T22:12:47.164Z,0.50
2023-01-12T22:15:14.334Z,0.60
2023-01-12T22:17:41.044Z,0.60
2023-01-12T22:20:07.552Z,0.50
2023-01-12T22:22:34.043Z,0.57
2023-01-12T22:25:00.538Z,0.47
2023-01-12T22:27:27.017Z,0.50
2023-01-12T22:29:53.524Z,0.50
2023-01-12T22:32:20.012Z,0.50
2023-01-12T22:34:46.516Z,0.50
2023-01-12T22:37:12.991Z,0.60
2023-01-12T22:39:39.493Z,0.90
2023-01-12T22:42:05.976Z,1.60
2023-01-12T22:44:32.497Z,1.00
2023-01-12T22:46:58.976Z,1.80
2023-01-12T22:49:25.475Z,0.93
2023-01-12T22:51:51.952Z,0.90
2023-01-12T22:54:19.155Z,0.73
2023-01-12T22:56:45.993Z,0.53
2023-01-12T22:59:12.707Z,0.90
2023-01-12T23:01:39.482Z,0.50
2023-01-12T23:04:06.261Z,0.83
2023-01-12T23:06:32.967Z,0.87
2023-01-12T23:08:59.689Z,0.50
2023-01-12T23:11:26.401Z,0.57
2023-01-12T23:13:54.925Z,0.50
2023-01-12T23:16:21.665Z,0.97
2023-01-12T23:18:49.845Z,1.20
2023-01-12T23:21:16.539Z,1.20
2023-01-12T23:23:43.352Z,0.50
2023-01-12T23:26:10.113Z,0.40
2023-01-12T23:28:38.950Z,0.60
2023-01-12T23:31:05.687Z,0.70
2023-01-12T23:33:32.471Z,1.20
2023-01-12T23:35:59.149Z,0.90
2023-01-12T23:38:25.806Z,1.00
2023-01-12T23:40:52.559Z,0.90
2023-01-12T23:43:20.931Z,0.60
2023-01-12T23:45:47.697Z,0.90
2023-01-12T23:48:14.643Z,0.90
2023-01-12T23:50:41.353Z,0.60
2023-01-12T23:53:08.013Z,0.57
2023-01-12T23:55:34.698Z,0.50
2023-01-12T23:58:02.524Z,0.50
